Time;durP1;ratioP1;P1;durP2;ratioP2;P2;SDS_P1;SDS_P2;PMS_P1;PMS_P2;Temp;Humidity;BMP_temperature;BMP_pressure;BME280_temperature;BME280_humidity;BME280_pressure;Samples;Min_cycle;Max_cycle;Signal;HPM_P1;HPM_P2
2022/01/19 00:00:48;;;;;;;3.00;2.00;;;;;;;-6.08;69.89;100211.77;109159;1275;22558;-59
2022/01/19 00:03:16;;;;;;;5.20;1.80;;;;;;;-6.06;69.81;100212.09;109125;1276;139767;-59
2022/01/19 00:05:44;;;;;;;2.40;1.80;;;;;;;-6.05;70.04;100216.11;108121;1276;25437;-58
2022/01/19 00:08:17;;;;;;;5.70;1.70;;;;;;;-6.06;69.81;100225.15;109033;1276;138299;-58
2022/01/19 00:10:45;;;;;;;4.50;1.80;;;;;;;-6.08;69.80;100231.38;109124;1277;22451;-59
2022/01/19 00:13:13;;;;;;;4.30;2.00;;;;;;;-6.09;69.96;100236.45;109167;1276;22481;-59
2022/01/19 00:15:47;;;;;;;3.90;1.80;;;;;;;-6.12;70.19;100241.09;109054;1277;138047;-59
2022/01/19 00:18:17;;;;;;;4.80;2.10;;;;;;;-6.15;70.14;100247.52;109083;1277;22448;-59
2022/01/19 00:20:45;;;;;;;6.10;2.20;;;;;;;-6.16;70.26;100251.20;109131;1275;138040;-58
2022/01/19 00:23:15;;;;;;;4.70;2.80;;;;;;;-6.18;70.22;100256.13;109305;1275;22614;-58
2022/01/19 00:25:44;;;;;;;9.70;2.00;;;;;;;-6.20;70.33;100254.41;109189;1276;141482;-59
2022/01/19 00:28:12;;;;;;;5.90;2.00;;;;;;;-6.23;70.46;100261.34;109097;1277;22583;-59
2022/01/19 00:30:40;;;;;;;8.00;2.80;;;;;;;-6.26;70.39;100262.35;109167;1277;22491;-58
2022/01/19 00:33:08;;;;;;;4.20;2.20;;;;;;;-6.28;70.48;100257.88;109069;1276;139182;-59
2022/01/19 00:35:36;;;;;;;7.40;2.70;;;;;;;-6.27;70.59;100258.91;109164;1276;23443;-58
2022/01/19 00:38:05;;;;;;;9.10;2.40;;;;;;;-6.28;70.68;100265.48;109089;1277;138343;-58
2022/01/19 00:40:35;;;;;;;5.20;2.10;;;;;;;-6.29;70.60;100258.73;109179;1276;22501;-58
2022/01/19 00:43:03;;;;;;;6.40;2.00;;;;;;;-6.32;70.79;100257.73;109208;1276;22471;-58
2022/01/19 00:45:31;;;;;;;3.70;1.90;;;;;;;-6.34;70.76;100253.85;109144;1276;137308;-57
2022/01/19 00:48:19;;;;;;;5.00;2.30;;;;;;;-6.36;70.93;100254.08;109137;1276;22504;-58
2022/01/19 00:50:47;;;;;;;5.50;2.40;;;;;;;-6.40;70.90;100252.60;109104;1275;137661;-58
2022/01/19 00:53:15;;;;;;;4.60;2.40;;;;;;;-6.42;70.95;100252.75;109271;1276;22488;-58
2022/01/19 00:55:43;;;;;;;5.40;2.30;;;;;;;-6.44;71.09;100258.21;109099;1275;137910;-58
2022/01/19 00:58:10;;;;;;;4.70;2.00;;;;;;;-6.44;70.98;100267.73;109098;1277;23079;-58
2022/01/19 01:00:38;;;;;;;4.70;2.40;;;;;;;-6.46;71.09;100272.70;109085;1277;22453;-57
2022/01/19 01:03:06;;;;;;;6.60;2.90;;;;;;;-6.47;71.14;100274.34;109021;1276;138015;-58
2022/01/19 01:05:35;;;;;;;7.50;2.60;;;;;;;-6.49;71.11;100278.47;109168;1277;22452;-58
2022/01/19 01:08:04;;;;;;;5.70;2.80;;;;;;;-6.50;71.19;100273.92;109068;1276;139420;-58
2022/01/19 01:10:40;;;;;;;4.90;2.30;;;;;;;-6.50;71.25;100276.61;109246;1276;22463;-58
2022/01/19 01:16:18;;;;;;;5.30;2.70;;;;;;;-6.55;71.18;100283.35;109068;1276;138873;-59
2022/01/19 01:18:46;;;;;;;8.50;3.00;;;;;;;-6.56;71.42;100282.92;109216;1276;22469;-59
2022/01/19 01:21:14;;;;;;;7.00;2.40;;;;;;;-6.57;71.51;100282.49;109200;1276;137517;-59
2022/01/19 01:23:42;;;;;;;6.60;3.00;;;;;;;-6.59;71.54;100290.79;109186;1275;22449;-59
2022/01/19 01:26:11;;;;;;;4.60;2.70;;;;;;;-6.62;71.65;100286.95;109168;1276;138000;-59
2022/01/19 01:28:40;;;;;;;5.80;2.90;;;;;;;-6.62;71.77;100285.77;109323;1275;22912;-59
2022/01/19 01:31:09;;;;;;;7.70;3.10;;;;;;;-6.64;71.75;100284.52;109173;1276;22443;-59
2022/01/19 01:33:39;;;;;;;6.30;3.30;;;;;;;-6.67;71.72;100286.17;109037;1276;138516;-59
2022/01/19 01:36:07;;;;;;;5.70;3.20;;;;;;;-6.68;71.89;100286.30;109021;1277;22466;-59
2022/01/19 01:38:37;;;;;;;5.30;2.70;;;;;;;-6.70;71.93;100285.01;109083;1276;138723;-59
2022/01/19 01:41:13;;;;;;;7.20;3.60;;;;;;;-6.69;71.87;100285.52;109171;1276;22563;-59
2022/01/19 01:43:49;;;;;;;;;;;;;;;-6.70;72.07;100283.80;108946;1277;139057;-59
2022/01/19 01:47:04;;;;;;;6.80;2.60;;;;;;;-6.70;72.03;100282.06;109219;1276;22592;-59
2022/01/19 01:49:13;;;;;;;8.10;3.00;;;;;;;-6.71;72.15;100278.92;109224;1276;22602;-59
2022/01/19 01:54:28;;;;;;;8.20;3.70;;;;;;;-6.73;72.28;100282.66;109292;1276;22401;-59
2022/01/19 01:56:56;;;;;;;7.50;3.80;;;;;;;-6.75;72.36;100275.02;109123;1276;138068;-59
2022/01/19 01:59:23;;;;;;;10.00;3.60;;;;;;;-6.76;72.38;100280.55;109195;1277;23299;-60
2022/01/19 02:02:11;;;;;;;6.00;2.90;;;;;;;-6.78;72.40;100281.74;109156;1276;138689;-59
2022/01/19 02:04:41;;;;;;;5.80;3.40;;;;;;;-6.80;72.44;100278.59;109267;1276;22529;-59
2022/01/19 02:10:02;;;;;;;8.20;3.00;;;;;;;-6.85;72.66;100273.89;109027;1277;139031;-59
2022/01/19 02:23:50;;;;;;;4.40;3.00;;;;;;;-6.88;72.89;100278.21;109189;1277;22607;-58
2022/01/19 02:26:32;;;;;;;7.40;3.10;;;;;;;-6.86;72.95;100272.93;109032;1277;140089;-59
2022/01/19 02:29:05;;;;;;;4.60;2.60;;;;;;;-6.84;72.96;100266.56;109142;1276;22468;-58
2022/01/19 02:42:41;;;;;;;5.40;2.40;;;;;;;-6.84;73.05;100269.55;109116;1277;22449;-58
2022/01/19 02:50:30;;;;;;;7.00;2.50;;;;;;;-6.88;73.36;100270.77;104852;1278;138714;-59
2022/01/19 02:52:58;;;;;;;4.50;2.30;;;;;;;-6.88;73.37;100268.65;104876;1277;25398;-59
2022/01/19 02:55:28;;;;;;;8.00;2.70;;;;;;;-6.89;73.53;100268.21;104853;1278;22565;-59
2022/01/19 02:57:56;;;;;;;6.10;2.60;;;;;;;-6.91;73.61;100269.63;104762;1277;138948;-59
2022/01/19 03:08:50;;;;;;;6.90;3.50;;;;;;;-6.90;73.94;100261.63;104689;1278;139402;-59
2022/01/19 03:11:24;;;;;;;5.10;2.50;;;;;;;-6.91;73.89;100260.61;104903;1278;25437;-59
2022/01/19 03:13:54;;;;;;;6.80;2.10;;;;;;;-6.91;74.05;100267.50;109327;1274;22454;-59
2022/01/19 03:16:22;;;;;;;4.60;2.20;;;;;;;-6.90;74.17;100262.29;109073;1276;139047;-59
2022/01/19 03:18:51;;;;;;;5.40;2.20;;;;;;;-6.90;74.21;100258.44;109222;1277;22483;-59
2022/01/19 03:21:19;;;;;;;4.80;2.10;;;;;;;-6.91;74.33;100248.84;109164;1276;139933;-59
2022/01/19 03:23:47;;;;;;;5.10;2.00;;;;;;;-6.92;74.29;100241.67;109204;1277;23427;-59
2022/01/19 03:26:15;;;;;;;5.10;1.80;;;;;;;-6.92;74.40;100240.29;109067;1277;139443;-59
2022/01/19 03:29:01;;;;;;;4.30;2.10;;;;;;;-6.92;74.46;100236.70;109230;1277;22504;-59
2022/01/19 03:31:29;;;;;;;5.50;2.20;;;;;;;-6.91;74.45;100239.42;109158;1276;23393;-59
2022/01/19 03:33:57;;;;;;;4.90;2.20;;;;;;;-6.90;74.52;100235.08;109051;1276;139011;-59
2022/01/19 03:36:25;;;;;;;5.80;2.10;;;;;;;-6.89;74.43;100244.04;109194;1277;23201;-59
2022/01/19 03:38:53;;;;;;;3.80;2.20;;;;;;;-6.88;74.46;100248.04;109023;1277;138328;-59
2022/01/19 03:41:21;;;;;;;6.00;2.10;;;;;;;-6.89;74.42;100246.30;109171;1277;23202;-59
2022/01/19 03:43:50;;;;;;;6.10;2.10;;;;;;;-6.89;74.54;100250.02;109241;1276;22435;-59
2022/01/19 03:46:21;;;;;;;5.40;3.30;;;;;;;-6.90;74.56;100252.04;109138;1277;138540;-59
2022/01/19 03:51:20;;;;;;;5.50;2.60;;;;;;;-6.93;74.66;100249.83;109009;1277;138319;-59
2022/01/19 03:53:48;;;;;;;6.30;2.70;;;;;;;-6.93;74.71;100242.94;109090;1277;23094;-59
2022/01/19 03:56:17;;;;;;;6.30;3.00;;;;;;;-6.91;74.69;100241.79;107103;1277;138170;-59
2022/01/19 03:58:45;;;;;;;8.40;3.30;;;;;;;-6.91;74.73;100245.48;109035;1277;23346;-59
2022/01/19 04:01:13;;;;;;;7.10;3.20;;;;;;;-6.90;74.74;100254.73;109071;1277;22511;-59
2022/01/19 04:06:40;;;;;;;9.20;3.60;;;;;;;-6.89;74.82;100265.95;109168;1277;22903;-59
2022/01/19 04:09:09;;;;;;;8.90;4.20;;;;;;;-6.89;74.76;100268.96;109076;1277;137970;-59
2022/01/19 04:11:37;;;;;;;9.70;4.00;;;;;;;-6.90;74.80;100265.33;109046;1277;23143;-59
2022/01/19 04:16:33;;;;;;;11.70;4.90;;;;;;;-6.86;74.91;100265.68;109206;1277;22655;-59
2022/01/19 04:19:49;;;;;;;10.50;5.60;;;;;;;-6.81;75.01;100264.05;109158;1277;22569;-59
2022/01/19 04:21:56;;;;;;;11.70;6.30;;;;;;;-6.77;74.87;100273.58;108933;1276;138365;-59
2022/01/19 04:24:24;;;;;;;15.10;8.00;;;;;;;-6.77;74.44;100276.02;109183;1276;22619;-59
2022/01/19 04:27:40;;;;;;;13.60;6.00;;;;;;;-6.78;74.17;100272.83;109057;1276;138455;-59
2022/01/19 04:30:08;;;;;;;13.10;5.60;;;;;;;-6.80;74.23;100276.48;109139;1276;23474;-59
2022/01/19 04:33:31;;;;;;;9.60;4.70;;;;;;;-6.81;74.21;100276.73;109126;1275;138348;-59
2022/01/19 04:35:52;;;;;;;9.60;4.20;;;;;;;-6.82;74.32;100284.42;109137;1276;23315;-59
2022/01/19 04:47:24;;;;;;;7.00;3.70;;;;;;;-6.85;74.46;100300.27;109140;1277;23021;-59
2022/01/19 05:03:42;;;;;;;10.30;4.20;;;;;;;-6.96;74.84;100314.58;109126;1276;138629;-59
2022/01/19 05:06:21;;;;;;;13.30;6.10;;;;;;;-6.97;75.01;100314.16;109249;1276;22474;-59
2022/01/19 05:14:17;;;;;;;19.20;7.20;;;;;;;-7.04;75.20;100301.30;108791;1276;138902;-59
2022/01/19 05:16:45;;;;;;;16.90;6.30;;;;;;;-7.07;75.27;100298.52;109119;1276;22479;-59
2022/01/19 05:19:15;;;;;;;14.20;6.50;;;;;;;-7.06;75.31;100299.75;109013;1276;22532;-59
2022/01/19 05:21:45;;;;;;;20.30;7.30;;;;;;;-7.09;75.36;100297.14;108970;1277;138752;-59
2022/01/19 05:24:13;;;;;;;14.40;5.00;;;;;;;-7.13;75.36;100294.27;109186;1276;22473;-59
2022/01/19 05:26:50;;;;;;;12.20;5.40;;;;;;;-7.16;75.57;100294.32;106094;1276;138328;-58
2022/01/19 05:29:26;;;;;;;12.80;5.30;;;;;;;-7.20;75.59;100291.13;109179;1276;23295;-59
2022/01/19 05:31:54;;;;;;;11.90;5.00;;;;;;;-7.22;75.68;100293.58;109072;1277;22483;-59
2022/01/19 05:34:22;;;;;;;15.20;5.20;;;;;;;-7.25;75.87;100297.71;109017;1277;138526;-59
2022/01/19 05:36:56;;;;;;;11.30;4.70;;;;;;;-7.29;75.94;100294.34;109133;1277;22439;-59
2022/01/19 05:39:45;;;;;;;8.30;3.80;;;;;;;-7.32;76.10;100292.13;108980;1276;140379;-59
2022/01/19 05:42:17;;;;;;;10.60;4.40;;;;;;;-7.31;76.32;100291.19;109231;1276;23238;-59
2022/01/19 05:44:47;;;;;;;12.70;5.00;;;;;;;-7.31;76.55;100291.48;109160;1275;138532;-59
2022/01/19 05:47:19;;;;;;;9.20;4.10;;;;;;;-7.31;76.55;100288.16;109204;1276;23159;-59
2022/01/19 05:49:47;;;;;;;9.00;3.70;;;;;;;-7.30;76.71;100284.58;109195;1276;22470;-59
2022/01/19 05:52:16;;;;;;;10.30;4.60;;;;;;;-7.30;76.90;100287.70;109077;1275;138404;-59
2022/01/19 05:54:45;;;;;;;10.40;4.60;;;;;;;-7.30;76.95;100285.83;109181;1274;22441;-59
2022/01/19 05:57:13;;;;;;;10.60;6.00;;;;;;;-7.31;76.92;100285.18;109070;1276;139228;-59
2022/01/19 05:59:43;;;;;;;12.60;5.10;;;;;;;-7.31;77.10;100284.48;109191;1276;22478;-59
2022/01/19 06:02:11;;;;;;;14.40;5.40;;;;;;;-7.30;77.05;100289.13;109039;1276;139867;-59
2022/01/19 06:04:40;;;;;;;9.80;4.80;;;;;;;-7.29;77.07;100294.19;109237;1276;22427;-59
2022/01/19 06:07:44;;;;;;;13.70;5.50;;;;;;;-7.25;77.16;100297.06;109132;1276;22556;-59
2022/01/19 06:10:44;;;;;;;14.20;4.70;;;;;;;-7.19;77.29;100300.77;109115;1276;138276;-58
2022/01/19 06:13:14;;;;;;;15.00;4.90;;;;;;;-7.14;77.35;100302.28;109202;1276;22609;-59
2022/01/19 06:15:42;;;;;;;12.40;6.20;;;;;;;-7.10;77.34;100295.27;109056;1276;138145;-59
2022/01/19 06:18:10;;;;;;;11.40;5.20;;;;;;;-7.07;77.30;100289.36;109192;1275;22427;-59
2022/01/19 06:20:38;;;;;;;14.10;5.90;;;;;;;-7.04;77.28;100282.37;109114;1275;138346;-59
2022/01/19 06:23:06;;;;;;;19.80;8.10;;;;;;;-7.01;77.30;100284.83;109167;1276;22566;-59
2022/01/19 06:25:39;;;;;;;13.60;8.30;;;;;;;-6.99;77.28;100298.45;109082;1276;22529;-59
2022/01/19 06:28:07;;;;;;;18.10;8.40;;;;;;;-6.97;77.35;100300.54;109009;1276;139969;-58
2022/01/19 06:30:36;;;;;;;22.00;12.00;;;;;;;-6.92;77.68;100303.13;109063;1277;22475;-59
2022/01/19 06:33:04;;;;;;;20.40;10.50;;;;;;;-6.85;77.87;100306.57;109075;1276;138759;-59
2022/01/19 06:35:33;;;;;;;22.20;10.30;;;;;;;-6.79;77.88;100305.55;109120;1276;23421;-58
2022/01/19 06:38:21;;;;;;;21.60;10.20;;;;;;;-6.73;77.90;100303.11;108991;1276;138660;-58
2022/01/19 06:40:53;;;;;;;17.50;9.60;;;;;;;-6.66;77.96;100310.67;109009;1277;22546;-60
2022/01/19 06:43:21;;;;;;;18.10;8.70;;;;;;;-6.61;77.99;100313.42;109141;1276;22397;-57
2022/01/19 06:45:49;;;;;;;23.00;10.40;;;;;;;-6.57;78.10;100305.84;109020;1275;139120;-58
2022/01/19 06:48:17;;;;;;;21.90;9.00;;;;;;;-6.50;78.25;100305.58;109043;1277;22496;-57
2022/01/19 06:50:45;;;;;;;25.10;10.80;;;;;;;-6.42;78.26;100305.26;109005;1276;140660;-58
2022/01/19 06:53:20;;;;;;;18.30;7.90;;;;;;;-6.32;78.39;100308.81;109199;1276;23669;-58
2022/01/19 06:55:59;;;;;;;13.90;6.90;;;;;;;-6.24;78.19;100314.50;109235;1276;23619;-58
2022/01/19 06:58:28;;;;;;;14.30;6.40;;;;;;;-6.19;78.07;100310.63;109103;1276;139472;-58
2022/01/19 07:01:15;;;;;;;11.90;5.20;;;;;;;-6.15;77.97;100308.93;109186;1276;23120;-58
2022/01/19 07:04:02;;;;;;;18.10;7.40;;;;;;;-6.12;77.77;100299.96;109008;1276;140061;-58
2022/01/19 07:06:32;;;;;;;11.80;5.30;;;;;;;-6.10;77.86;100301.18;109077;1276;23252;-58
2022/01/19 07:09:16;;;;;;;14.50;6.10;;;;;;;-6.01;78.09;100297.60;108901;1276;138617;-57
2022/01/19 07:11:55;;;;;;;12.30;6.10;;;;;;;-5.93;78.05;100299.38;108997;1277;22531;-58
2022/01/19 07:14:42;;;;;;;15.20;6.90;;;;;;;-5.86;77.98;100299.64;108994;1276;139106;-58
2022/01/19 07:17:10;;;;;;;17.10;7.50;;;;;;;-5.79;77.90;100292.61;109073;1277;23355;-58
2022/01/19 07:19:38;;;;;;;15.40;7.80;;;;;;;-5.69;78.05;100292.69;109092;1276;22432;-58
2022/01/19 07:22:07;;;;;;;17.00;7.70;;;;;;;-5.60;78.05;100284.75;108948;1277;138926;-58
2022/01/19 07:24:36;;;;;;;18.60;7.60;;;;;;;-5.51;77.79;100287.88;109047;1276;23524;-58
2022/01/19 07:27:04;;;;;;;15.80;7.10;;;;;;;-5.46;77.62;100284.16;108740;1277;140738;-58
2022/01/19 07:29:32;;;;;;;16.20;6.10;;;;;;;-5.40;77.46;100287.23;108947;1276;22468;-58
2022/01/19 07:32:00;;;;;;;16.30;6.40;;;;;;;-5.37;77.27;100288.52;109102;1277;22381;-58
2022/01/19 07:34:30;;;;;;;16.90;6.60;;;;;;;-5.32;77.14;100285.79;108932;1276;139391;-58
2022/01/19 07:37:03;;;;;;;14.30;6.70;;;;;;;-5.27;77.06;100287.08;105660;1276;24028;-57
2022/01/19 07:39:32;;;;;;;15.60;6.40;;;;;;;-5.22;76.88;100285.24;109030;1274;138230;-59
2022/01/19 07:42:00;;;;;;;18.60;7.90;;;;;;;-5.15;76.96;100280.31;108954;1277;22428;-58
2022/01/19 07:44:46;;;;;;;16.50;8.50;;;;;;;-5.05;77.07;100276.63;109072;1274;138934;-59
2022/01/19 07:47:23;;;;;;;18.80;6.90;;;;;;;-4.98;76.76;100277.91;109061;1276;22455;-58
2022/01/19 07:50:17;;;;;;;16.60;8.10;;;;;;;-4.93;76.48;100274.63;108626;1277;139869;-58
2022/01/19 07:53:00;;;;;;;18.90;8.90;;;;;;;-4.90;76.31;100267.06;107554;1276;22573;-58
2022/01/19 07:55:42;;;;;;;20.50;8.20;;;;;;;-4.84;76.17;100269.71;104915;1276;27166;-57
2022/01/19 07:58:46;;;;;;;16.40;7.40;;;;;;;-4.79;76.06;100264.98;104515;1276;138341;-57
2022/01/19 08:01:30;;;;;;;16.70;7.80;;;;;;;-4.75;75.93;100263.15;109041;1275;22447;-58
2022/01/19 08:04:05;;;;;;;13.50;7.30;;;;;;;-4.72;75.89;100260.41;108867;1276;138181;-58
2022/01/19 08:06:42;;;;;;;22.10;9.20;;;;;;;-4.67;75.80;100257.86;109012;1277;22466;-58
2022/01/19 08:09:10;;;;;;;20.90;9.40;;;;;;;-4.65;75.48;100258.13;108912;1276;139993;-58
2022/01/19 08:11:38;;;;;;;20.50;8.80;;;;;;;-4.61;75.58;100260.52;109043;1277;22471;-58
2022/01/19 08:14:28;;;;;;;18.10;8.50;;;;;;;-4.56;75.55;100259.35;109065;1275;140549;-58
2022/01/19 08:16:56;;;;;;;16.00;7.40;;;;;;;-4.52;75.42;100255.77;105941;1277;24221;-58
2022/01/19 08:19:26;;;;;;;16.00;7.80;;;;;;;-4.50;75.22;100256.47;109083;1276;23270;-58
2022/01/19 08:21:53;;;;;;;15.50;6.70;;;;;;;-4.48;74.96;100263.48;108739;1276;358339;-58
2022/01/19 08:25:18;;;;;;;15.00;8.20;;;;;;;-4.47;74.85;100258.64;101826;1307;545238;-57
2022/01/19 08:27:47;;;;;;;16.60;7.50;;;;;;;-4.51;74.84;100254.36;107897;1287;137667;-58
2022/01/19 08:30:16;;;;;;;13.60;6.90;;;;;;;-4.53;74.59;100252.27;108972;1281;22474;-59
2022/01/19 08:32:44;;;;;;;22.20;9.60;;;;;;;-4.55;74.64;100252.33;108810;1279;136967;-59
2022/01/19 08:35:21;;;;;;;;;;;;;;;-4.55;74.74;100251.04;108769;1281;22486;-59
2022/01/19 08:38:08;;;;;;;17.70;7.20;;;;;;;-4.53;74.61;100244.30;108929;1278;118605;-58
2022/01/19 08:40:41;;;;;;;14.80;7.40;;;;;;;-4.51;74.69;100242.02;108864;1278;138094;-58
2022/01/19 08:43:18;;;;;;;12.80;5.80;;;;;;;-4.49;74.73;100227.83;109095;1277;22635;-58
2022/01/19 08:45:46;;;;;;;13.90;6.00;;;;;;;-4.45;74.74;100225.45;109072;1277;137356;-58
2022/01/19 08:48:17;;;;;;;16.30;8.20;;;;;;;-4.40;74.92;100220.15;108973;1277;22559;-58
2022/01/19 08:51:08;;;;;;;15.80;5.90;;;;;;;-4.33;74.66;100221.14;108798;1277;139346;-58
2022/01/19 08:53:43;;;;;;;17.70;7.80;;;;;;;-4.30;74.56;100220.61;109213;1274;22531;-58
2022/01/19 08:56:26;;;;;;;16.40;7.10;;;;;;;-4.25;74.27;100219.15;109105;1277;137964;-58
2022/01/19 08:58:54;;;;;;;14.50;7.00;;;;;;;-4.22;74.28;100225.77;109035;1277;22477;-58
2022/01/19 09:01:22;;;;;;;15.50;8.30;;;;;;;-4.17;74.34;100224.21;109215;1274;22451;-58
2022/01/19 09:03:51;;;;;;;15.90;8.20;;;;;;;-4.11;74.28;100219.16;109143;1275;137874;-57
2022/01/19 09:06:19;;;;;;;18.70;8.30;;;;;;;-4.06;73.96;100218.17;109198;1276;23455;-59
2022/01/19 09:08:48;;;;;;;17.40;7.90;;;;;;;-4.00;74.00;100221.66;109173;1274;137524;-59
2022/01/19 09:11:16;;;;;;;18.20;8.30;;;;;;;-3.94;73.85;100222.11;109249;1274;22599;-59
2022/01/19 09:13:44;;;;;;;16.80;7.50;;;;;;;-3.85;73.66;100218.95;109308;1274;22551;-59
2022/01/19 09:16:15;;;;;;;23.70;8.50;;;;;;;-3.76;73.38;100215.77;109125;1274;140618;-59
2022/01/19 09:18:43;;;;;;;19.20;8.80;;;;;;;-3.68;73.01;100210.89;109230;1276;22498;-59
2022/01/19 09:21:11;;;;;;;19.60;8.40;;;;;;;-3.62;72.29;100206.04;109149;1274;137537;-59
2022/01/19 09:23:39;;;;;;;16.80;7.60;;;;;;;-3.56;71.99;100205.48;109276;1274;22436;-59
2022/01/19 09:26:08;;;;;;;15.30;7.20;;;;;;;-3.48;71.96;100200.11;109246;1274;23526;-59
2022/01/19 09:28:36;;;;;;;11.00;5.90;;;;;;;-3.41;71.50;100197.05;109239;1274;138815;-59
2022/01/19 09:31:24;;;;;;;12.50;5.90;;;;;;;-3.32;71.56;100192.23;109292;1272;22471;-59
2022/01/19 09:34:02;;;;;;;11.80;5.80;;;;;;;-3.22;71.68;100184.45;109180;1274;137156;-59
2022/01/19 09:36:35;;;;;;;11.50;6.00;;;;;;;-3.10;71.61;100182.23;109282;1276;22462;-58
2022/01/19 09:39:04;;;;;;;13.60;6.80;;;;;;;-3.01;71.27;100176.45;109076;1277;138482;-59
2022/01/19 09:41:32;;;;;;;15.60;5.40;;;;;;;-2.92;70.75;100175.77;109218;1276;22405;-59
2022/01/19 09:44:00;;;;;;;10.80;5.30;;;;;;;-2.85;70.38;100168.60;109239;1276;22430;-58
2022/01/19 09:46:29;;;;;;;11.00;5.60;;;;;;;-2.77;70.37;100169.09;109090;1277;138593;-58
2022/01/19 09:49:01;;;;;;;19.60;8.80;;;;;;;-2.70;69.93;100170.50;109176;1276;22518;-60
2022/01/19 09:51:29;;;;;;;14.90;6.80;;;;;;;-2.63;69.58;100171.55;109100;1275;137918;-60
2022/01/19 09:53:57;;;;;;;18.20;7.50;;;;;;;-2.57;69.13;100177.98;109081;1276;23150;-59
2022/01/19 09:56:25;;;;;;;15.10;7.50;;;;;;;-2.52;68.55;100178.38;109144;1275;139067;-59
2022/01/19 09:58:53;;;;;;;18.30;8.40;;;;;;;-2.49;67.94;100172.00;109163;1276;22491;-59
2022/01/19 10:01:22;;;;;;;15.00;7.20;;;;;;;-2.46;67.98;100166.74;109191;1277;22523;-59
2022/01/19 10:03:50;;;;;;;16.60;6.80;;;;;;;-2.41;68.32;100167.42;109120;1277;138051;-59
2022/01/19 10:06:19;;;;;;;12.60;5.70;;;;;;;-2.34;68.01;100163.71;109181;1276;22465;-60
2022/01/19 10:08:49;;;;;;;12.90;5.90;;;;;;;-2.29;67.92;100153.86;109089;1275;138384;-60
2022/01/19 10:17:03;;;;;;;;;;;;;;;-2.20;67.39;100144.93;109157;1274;138841;-60
2022/01/19 10:19:32;;;;;;;11.90;5.80;;;;;;;-2.18;67.67;100146.34;109282;1274;22426;-60
2022/01/19 10:22:09;;;;;;;8.60;4.30;;;;;;;-2.16;67.69;100147.70;108998;1277;138200;-59
2022/01/19 10:24:47;;;;;;;10.50;5.20;;;;;;;-2.15;67.36;100145.32;109145;1277;22567;-59
2022/01/19 10:27:25;;;;;;;10.00;4.70;;;;;;;-2.15;67.63;100136.18;109090;1277;138719;-59
2022/01/19 10:30:14;;;;;;;11.50;5.30;;;;;;;-2.10;67.97;100128.14;109199;1277;22503;-59
2022/01/19 10:32:52;;;;;;;13.00;5.50;;;;;;;-2.06;67.94;100116.61;109076;1276;137912;-59
2022/01/19 10:35:20;;;;;;;14.30;5.60;;;;;;;-2.02;68.23;100120.98;109253;1277;23390;-59
2022/01/19 10:38:09;;;;;;;10.80;4.90;;;;;;;-1.98;68.10;100123.77;109205;1277;22460;-60
2022/01/19 10:40:38;;;;;;;9.60;4.70;;;;;;;-1.94;68.08;100120.14;108968;1276;138453;-59
2022/01/19 10:43:41;;;;;;;13.50;6.10;;;;;;;-1.92;68.15;100119.22;109147;1277;22517;-59
2022/01/19 10:46:15;;;;;;;12.50;5.10;;;;;;;-1.89;68.24;100121.70;107201;1277;138569;-62
2022/01/19 10:48:43;;;;;;;15.10;5.70;;;;;;;-1.87;68.12;100123.12;104607;1277;26230;-61
2022/01/19 10:51:17;;;;;;;12.70;5.60;;;;;;;-1.84;68.42;100118.18;109011;1277;137496;-62
2022/01/19 10:54:06;;;;;;;13.60;5.80;;;;;;;-1.81;68.38;100114.77;109136;1277;23217;-60
2022/01/19 10:56:34;;;;;;;13.60;6.20;;;;;;;-1.77;68.36;100111.41;109012;1277;137428;-62
2022/01/19 10:59:05;;;;;;;17.50;6.70;;;;;;;-1.75;68.14;100100.73;109059;1275;22481;-62
2022/01/19 11:01:45;;;;;;;16.20;5.70;;;;;;;-1.73;68.48;100095.52;109036;1277;22459;-62
2022/01/19 11:04:28;;;;;;;13.60;5.20;;;;;;;-1.70;68.76;100104.70;109005;1277;138990;-62
2022/01/19 11:07:01;;;;;;;15.70;6.20;;;;;;;-1.64;68.53;100106.77;109174;1277;23827;-62
2022/01/19 11:09:31;;;;;;;18.00;8.40;;;;;;;-1.61;68.81;100104.78;109010;1277;138262;-62
2022/01/19 11:12:06;;;;;;;18.00;6.90;;;;;;;-1.56;68.85;100105.46;109089;1277;22895;-62
2022/01/19 11:14:36;;;;;;;16.20;7.80;;;;;;;-1.53;68.70;100105.15;109028;1277;138277;-63
2022/01/19 11:17:24;;;;;;;16.00;7.50;;;;;;;-1.46;69.03;100113.02;109112;1277;22632;-63
2022/01/19 11:19:53;;;;;;;23.40;7.40;;;;;;;-1.43;68.97;100112.30;109143;1277;22489;-63
2022/01/19 11:22:27;;;;;;;14.20;6.10;;;;;;;-1.37;69.12;100110.98;109039;1277;139347;-62
2022/01/19 11:24:58;;;;;;;15.90;5.90;;;;;;;-1.31;69.32;100108.66;109346;1274;23295;-63
2022/01/19 11:27:28;;;;;;;15.20;6.10;;;;;;;-1.25;69.25;100096.42;109159;1274;138512;-63
2022/01/19 11:30:25;;;;;;;15.20;6.20;;;;;;;-1.21;69.30;100092.79;109254;1276;22522;-63
2022/01/19 11:33:14;;;;;;;10.90;5.20;;;;;;;-1.14;69.85;100080.39;109146;1276;138984;-63
2022/01/19 11:35:45;;;;;;;8.00;4.70;;;;;;;-1.10;70.42;100065.70;109234;1274;23172;-63
2022/01/19 11:38:31;;;;;;;10.00;4.40;;;;;;;-1.08;70.87;100060.45;109189;1276;24943;-62
2022/01/19 11:41:00;;;;;;;9.50;4.30;;;;;;;-1.09;70.97;100048.09;109157;1274;137274;-62
2022/01/19 11:43:29;;;;;;;10.00;4.10;;;;;;;-1.09;71.34;100044.95;109222;1275;22394;-60
2022/01/19 11:45:58;;;;;;;10.60;4.10;;;;;;;-1.09;71.69;100045.62;109126;1274;137995;-63
2022/01/19 11:48:28;;;;;;;12.20;4.00;;;;;;;-1.10;72.04;100047.11;109306;1274;22436;-62
2022/01/19 11:51:26;;;;;;;10.20;4.30;;;;;;;-1.10;71.72;100043.64;109275;1274;139392;-62
2022/01/19 11:54:07;;;;;;;9.50;4.30;;;;;;;-1.13;71.72;100044.64;109379;1274;22481;-60
2022/01/19 11:57:04;;;;;;;13.00;5.50;;;;;;;-1.17;71.83;100040.43;109285;1273;139045;-59
2022/01/19 11:59:48;;;;;;;15.20;6.60;;;;;;;-1.17;72.06;100034.27;109259;1274;22575;-61
2022/01/19 12:02:23;;;;;;;13.60;5.70;;;;;;;-1.16;72.47;100029.33;109308;1274;23278;-61
2022/01/19 12:05:16;;;;;;;11.00;5.20;;;;;;;-1.12;72.77;100027.27;109138;1276;138606;-60
2022/01/19 12:07:57;;;;;;;10.20;4.90;;;;;;;-1.08;72.72;100027.86;109184;1276;23185;-60
2022/01/19 12:10:30;;;;;;;11.30;4.10;;;;;;;-1.04;72.65;100022.68;109056;1276;137983;-61
2022/01/19 12:13:17;;;;;;;19.30;8.80;;;;;;;-1.02;72.72;100027.55;109234;1276;22394;-61
2022/01/19 12:15:54;;;;;;;31.20;13.50;;;;;;;-0.96;73.19;100027.09;105788;1274;138517;-61
2022/01/19 12:19:06;;;;;;;21.20;9.00;;;;;;;-0.88;73.33;100022.27;109324;1274;23273;-62
2022/01/19 12:21:34;;;;;;;16.40;8.70;;;;;;;-0.82;73.17;100024.55;108681;1280;137848;-63
2022/01/19 12:24:25;;;;;;;;;;;;;;;-0.78;73.07;100024.67;108895;1278;22635;-62
2022/01/19 12:27:01;;;;;;;18.70;6.90;;;;;;;-0.76;73.03;100028.22;108730;1280;125101;-62
2022/01/19 12:29:33;;;;;;;18.50;8.50;;;;;;;-0.73;73.02;100019.80;108752;1279;22485;-62
2022/01/19 12:32:01;;;;;;;16.50;7.90;;;;;;;-0.70;73.11;100018.04;108827;1281;22514;-62
2022/01/19 12:34:51;;;;;;;13.50;5.60;;;;;;;-0.68;73.22;100021.42;108518;1280;138633;-62
2022/01/19 12:37:34;;;;;;;9.60;4.20;;;;;;;-0.67;73.09;100033.05;108864;1280;22851;-62
2022/01/19 12:40:17;;;;;;;9.30;4.20;;;;;;;-0.68;72.91;100041.41;108810;1277;138019;-62
2022/01/19 12:42:46;;;;;;;12.80;5.70;;;;;;;-0.75;72.87;100050.89;108894;1279;22553;-62
2022/01/19 12:45:25;;;;;;;7.90;3.90;;;;;;;-0.80;73.18;100050.02;108898;1277;138496;-62
2022/01/19 12:47:59;;;;;;;10.20;4.70;;;;;;;-0.81;72.95;100048.79;109052;1277;23170;-62
2022/01/19 12:50:32;;;;;;;9.40;5.10;;;;;;;-0.83;73.28;100045.71;108969;1277;23217;-62
2022/01/19 12:53:15;;;;;;;14.20;6.10;;;;;;;-0.82;73.41;100039.39;109134;1274;139242;-62
2022/01/19 12:55:47;;;;;;;14.00;5.50;;;;;;;-0.81;73.68;100038.89;109380;1273;22446;-62
2022/01/19 12:58:21;;;;;;;13.70;6.00;;;;;;;-0.82;73.84;100033.38;109309;1274;137787;-62
2022/01/19 13:00:51;;;;;;;12.00;6.50;;;;;;;-0.85;73.87;100029.73;109304;1274;22486;-62
2022/01/19 13:03:27;;;;;;;11.50;5.90;;;;;;;-0.84;73.94;100032.66;109264;1274;138569;-62
2022/01/19 13:06:04;;;;;;;12.20;5.90;;;;;;;-0.84;74.11;100031.80;109396;1273;22485;-62